North Fond du Lac, Wisconsin
Current Conditions -  °F | °C
As of 11:53 PM on Friday 24 Oct 2014 (Local Time) from KFLD Reporting Station
Broken Clouds Broken Clouds  
Wind Chill: 55°   Ceiling: 3500
Heat Index: 55°   Visibility: 10mi
Dew Point: 49°   Wind: 8mph
Humidity: 80%   Direction: 220°SW
Pressure: 29.86"   Gusts: NA
Location:  43.7898°N, 88.5291°W
Report Text: KFLD 250453Z AUTO 22007KT 10SM BKN035 13/09 A2986 RMK AO2 SLP115 T01280094
Loading
Personal Weather Stations






























Interactive Weather Map
Tropical Storm Tracking
New forecast layout! Learn more

10-Day Weather Forecast

Advertisements
Track Severe Weather on mobile